sensor_id;sensor_type;location;lat;lon;timestamp;P1;durP1;ratioP1;P2;durP2;ratioP2
20340;SDS011;10328;50.042;8.238;2022-09-17T00:00:17;4.63;;;1.10;;
20340;SDS011;10328;50.042;8.238;2022-09-17T00:02:44;2.27;;;0.70;;
20340;SDS011;10328;50.042;8.238;2022-09-17T00:05:12;5.47;;;0.90;;
20340;SDS011;10328;50.042;8.238;2022-09-17T00:07:39;1.00;;;0.60;;
20340;SDS011;10328;50.042;8.238;2022-09-17T00:10:05;2.80;;;0.90;;
20340;SDS011;10328;50.042;8.238;2022-09-17T00:12:32;2.17;;;0.83;;
20340;SDS011;10328;50.042;8.238;2022-09-17T00:14:58;3.33;;;0.90;;
20340;SDS011;10328;50.042;8.238;2022-09-17T00:17:24;2.80;;;0.80;;
20340;SDS011;10328;50.042;8.238;2022-09-17T00:19:51;1.90;;;0.80;;
20340;SDS011;10328;50.042;8.238;2022-09-17T00:22:17;2.57;;;0.90;;
20340;SDS011;10328;50.042;8.238;2022-09-17T00:24:43;3.53;;;0.90;;
20340;SDS011;10328;50.042;8.238;2022-09-17T00:27:10;1.50;;;0.63;;
20340;SDS011;10328;50.042;8.238;2022-09-17T00:29:36;2.23;;;0.77;;
20340;SDS011;10328;50.042;8.238;2022-09-17T00:32:02;0.63;;;0.53;;
20340;SDS011;10328;50.042;8.238;2022-09-17T00:34:29;2.20;;;0.83;;
20340;SDS011;10328;50.042;8.238;2022-09-17T00:36:55;2.50;;;0.90;;
20340;SDS011;10328;50.042;8.238;2022-09-17T00:39:21;1.73;;;0.87;;
20340;SDS011;10328;50.042;8.238;2022-09-17T00:41:48;4.97;;;1.00;;
20340;SDS011;10328;50.042;8.238;2022-09-17T00:47:19;2.67;;;0.70;;
20340;SDS011;10328;50.042;8.238;2022-09-17T00:49:48;2.83;;;0.80;;
20340;SDS011;10328;50.042;8.238;2022-09-17T00:52:21;2.23;;;0.80;;
20340;SDS011;10328;50.042;8.238;2022-09-17T00:54:59;2.00;;;0.83;;
20340;SDS011;10328;50.042;8.238;2022-09-17T00:57:28;3.50;;;0.90;;
20340;SDS011;10328;50.042;8.238;2022-09-17T00:59:56;2.30;;;1.10;;
20340;SDS011;10328;50.042;8.238;2022-09-17T01:02:22;4.27;;;0.90;;
20340;SDS011;10328;50.042;8.238;2022-09-17T01:04:49;2.27;;;0.80;;
20340;SDS011;10328;50.042;8.238;2022-09-17T01:07:23;1.13;;;0.67;;
20340;SDS011;10328;50.042;8.238;2022-09-17T01:09:58;2.23;;;0.90;;
20340;SDS011;10328;50.042;8.238;2022-09-17T01:12:37;3.30;;;1.00;;
20340;SDS011;10328;50.042;8.238;2022-09-17T01:17:53;1.23;;;0.80;;
20340;SDS011;10328;50.042;8.238;2022-09-17T01:35:04;2.93;;;0.87;;
20340;SDS011;10328;50.042;8.238;2022-09-17T01:40:16;3.23;;;0.90;;
20340;SDS011;10328;50.042;8.238;2022-09-17T01:42:57;3.50;;;0.90;;
20340;SDS011;10328;50.042;8.238;2022-09-17T01:45:26;2.30;;;1.10;;
20340;SDS011;10328;50.042;8.238;2022-09-17T01:47:58;2.77;;;0.97;;
20340;SDS011;10328;50.042;8.238;2022-09-17T01:50:48;2.93;;;1.00;;
20340;SDS011;10328;50.042;8.238;2022-09-17T01:53:18;2.30;;;1.03;;
20340;SDS011;10328;50.042;8.238;2022-09-17T01:55:47;3.20;;;1.23;;
20340;SDS011;10328;50.042;8.238;2022-09-17T01:58:17;1.70;;;0.93;;
20340;SDS011;10328;50.042;8.238;2022-09-17T02:00:49;2.17;;;0.83;;
20340;SDS011;10328;50.042;8.238;2022-09-17T02:03:28;7.13;;;1.20;;
20340;SDS011;10328;50.042;8.238;2022-09-17T02:06:00;3.07;;;1.07;;
20340;SDS011;10328;50.042;8.238;2022-09-17T02:11:40;1.27;;;0.90;;
20340;SDS011;10328;50.042;8.238;2022-09-17T02:14:12;3.93;;;1.27;;
20340;SDS011;10328;50.042;8.238;2022-09-17T02:16:44;1.43;;;0.93;;
20340;SDS011;10328;50.042;8.238;2022-09-17T02:19:15;3.17;;;1.00;;
20340;SDS011;10328;50.042;8.238;2022-09-17T02:21:45;2.73;;;1.13;;
20340;SDS011;10328;50.042;8.238;2022-09-17T02:24:25;4.33;;;0.90;;
20340;SDS011;10328;50.042;8.238;2022-09-17T02:27:05;2.40;;;1.00;;
20340;SDS011;10328;50.042;8.238;2022-09-17T02:29:36;3.37;;;0.90;;
20340;SDS011;10328;50.042;8.238;2022-09-17T02:32:05;3.47;;;1.10;;
20340;SDS011;10328;50.042;8.238;2022-09-17T02:34:31;3.30;;;1.00;;
20340;SDS011;10328;50.042;8.238;2022-09-17T02:36:58;3.13;;;0.90;;
20340;SDS011;10328;50.042;8.238;2022-09-17T02:39:25;3.10;;;1.10;;
20340;SDS011;10328;50.042;8.238;2022-09-17T02:44:38;2.47;;;1.30;;
20340;SDS011;10328;50.042;8.238;2022-09-17T02:50:49;3.73;;;1.20;;
20340;SDS011;10328;50.042;8.238;2022-09-17T02:56:34;3.27;;;1.23;;
20340;SDS011;10328;50.042;8.238;2022-09-17T02:59:14;4.30;;;1.00;;
20340;SDS011;10328;50.042;8.238;2022-09-17T03:02:26;2.97;;;1.10;;
20340;SDS011;10328;50.042;8.238;2022-09-17T03:04:55;2.90;;;1.00;;
20340;SDS011;10328;50.042;8.238;2022-09-17T03:07:22;1.60;;;1.07;;
20340;SDS011;10328;50.042;8.238;2022-09-17T03:09:49;1.57;;;1.00;;
20340;SDS011;10328;50.042;8.238;2022-09-17T03:12:15;4.33;;;1.00;;
20340;SDS011;10328;50.042;8.238;2022-09-17T03:14:41;2.17;;;1.13;;
20340;SDS011;10328;50.042;8.238;2022-09-17T03:17:08;4.40;;;0.97;;
20340;SDS011;10328;50.042;8.238;2022-09-17T03:19:35;3.57;;;0.90;;
20340;SDS011;10328;50.042;8.238;2022-09-17T03:22:02;4.03;;;1.30;;
20340;SDS011;10328;50.042;8.238;2022-09-17T03:24:28;2.90;;;1.30;;
20340;SDS011;10328;50.042;8.238;2022-09-17T03:26:54;2.20;;;1.13;;
20340;SDS011;10328;50.042;8.238;2022-09-17T03:29:21;2.93;;;0.93;;
20340;SDS011;10328;50.042;8.238;2022-09-17T03:31:47;2.07;;;1.10;;
20340;SDS011;10328;50.042;8.238;2022-09-17T03:34:13;2.53;;;1.20;;
20340;SDS011;10328;50.042;8.238;2022-09-17T03:36:40;1.33;;;0.73;;
20340;SDS011;10328;50.042;8.238;2022-09-17T03:39:06;2.13;;;1.00;;
20340;SDS011;10328;50.042;8.238;2022-09-17T03:41:32;2.93;;;0.97;;
20340;SDS011;10328;50.042;8.238;2022-09-17T03:43:59;6.33;;;1.00;;
20340;SDS011;10328;50.042;8.238;2022-09-17T03:46:25;3.37;;;1.10;;
20340;SDS011;10328;50.042;8.238;2022-09-17T03:48:51;3.23;;;1.30;;
20340;SDS011;10328;50.042;8.238;2022-09-17T03:51:18;3.20;;;1.00;;
20340;SDS011;10328;50.042;8.238;2022-09-17T03:53:44;2.67;;;0.97;;
20340;SDS011;10328;50.042;8.238;2022-09-17T03:56:11;2.43;;;1.20;;
20340;SDS011;10328;50.042;8.238;2022-09-17T03:58:37;5.53;;;1.20;;
20340;SDS011;10328;50.042;8.238;2022-09-17T04:01:03;4.30;;;1.63;;
20340;SDS011;10328;50.042;8.238;2022-09-17T04:03:30;2.50;;;1.10;;
20340;SDS011;10328;50.042;8.238;2022-09-17T04:05:57;3.70;;;1.20;;
20340;SDS011;10328;50.042;8.238;2022-09-17T04:08:23;4.27;;;1.20;;
20340;SDS011;10328;50.042;8.238;2022-09-17T04:10:49;2.37;;;1.20;;
20340;SDS011;10328;50.042;8.238;2022-09-17T04:13:18;2.50;;;1.10;;
20340;SDS011;10328;50.042;8.238;2022-09-17T04:15:45;2.93;;;1.07;;
20340;SDS011;10328;50.042;8.238;2022-09-17T04:18:12;3.90;;;1.20;;
20340;SDS011;10328;50.042;8.238;2022-09-17T04:20:38;1.87;;;1.03;;
20340;SDS011;10328;50.042;8.238;2022-09-17T04:23:05;2.80;;;1.30;;
20340;SDS011;10328;50.042;8.238;2022-09-17T04:25:35;3.17;;;1.30;;
20340;SDS011;10328;50.042;8.238;2022-09-17T04:28:01;2.67;;;1.03;;
20340;SDS011;10328;50.042;8.238;2022-09-17T04:30:28;1.77;;;1.00;;
20340;SDS011;10328;50.042;8.238;2022-09-17T04:32:54;3.57;;;1.00;;
20340;SDS011;10328;50.042;8.238;2022-09-17T04:35:20;2.80;;;0.93;;
20340;SDS011;10328;50.042;8.238;2022-09-17T04:37:56;3.13;;;1.00;;
20340;SDS011;10328;50.042;8.238;2022-09-17T04:40:23;3.77;;;1.10;;
20340;SDS011;10328;50.042;8.238;2022-09-17T04:42:51;3.80;;;1.60;;
20340;SDS011;10328;50.042;8.238;2022-09-17T04:45:18;3.47;;;1.07;;
20340;SDS011;10328;50.042;8.238;2022-09-17T04:47:44;3.47;;;1.10;;
20340;SDS011;10328;50.042;8.238;2022-09-17T04:50:11;2.33;;;1.00;;
20340;SDS011;10328;50.042;8.238;2022-09-17T04:52:41;3.90;;;1.20;;
20340;SDS011;10328;50.042;8.238;2022-09-17T04:55:08;3.83;;;1.00;;
20340;SDS011;10328;50.042;8.238;2022-09-17T04:57:34;5.43;;;1.30;;
20340;SDS011;10328;50.042;8.238;2022-09-17T05:00:01;2.30;;;1.10;;
20340;SDS011;10328;50.042;8.238;2022-09-17T05:02:27;2.40;;;1.10;;
20340;SDS011;10328;50.042;8.238;2022-09-17T05:04:54;2.73;;;1.10;;
20340;SDS011;10328;50.042;8.238;2022-09-17T05:07:21;2.47;;;1.23;;
20340;SDS011;10328;50.042;8.238;2022-09-17T05:09:48;3.50;;;1.20;;
20340;SDS011;10328;50.042;8.238;2022-09-17T05:12:14;5.33;;;1.40;;
20340;SDS011;10328;50.042;8.238;2022-09-17T05:14:41;3.80;;;1.10;;
20340;SDS011;10328;50.042;8.238;2022-09-17T05:17:07;3.23;;;0.93;;
20340;SDS011;10328;50.042;8.238;2022-09-17T05:19:33;3.13;;;1.10;;
20340;SDS011;10328;50.042;8.238;2022-09-17T05:21:59;4.57;;;1.37;;
20340;SDS011;10328;50.042;8.238;2022-09-17T05:24:26;1.93;;;1.13;;
20340;SDS011;10328;50.042;8.238;2022-09-17T05:26:52;2.77;;;1.17;;
20340;SDS011;10328;50.042;8.238;2022-09-17T05:29:19;2.93;;;1.20;;
20340;SDS011;10328;50.042;8.238;2022-09-17T05:31:45;2.40;;;1.13;;
20340;SDS011;10328;50.042;8.238;2022-09-17T05:34:12;2.50;;;1.20;;
20340;SDS011;10328;50.042;8.238;2022-09-17T05:36:38;5.20;;;1.30;;
20340;SDS011;10328;50.042;8.238;2022-09-17T05:39:04;2.93;;;1.33;;
20340;SDS011;10328;50.042;8.238;2022-09-17T05:41:31;2.63;;;1.17;;
20340;SDS011;10328;50.042;8.238;2022-09-17T05:43:57;3.43;;;1.50;;
20340;SDS011;10328;50.042;8.238;2022-09-17T05:46:23;4.27;;;1.20;;
20340;SDS011;10328;50.042;8.238;2022-09-17T05:48:50;2.70;;;1.33;;
20340;SDS011;10328;50.042;8.238;2022-09-17T05:51:16;4.43;;;1.20;;
20340;SDS011;10328;50.042;8.238;2022-09-17T05:53:43;5.33;;;1.50;;
20340;SDS011;10328;50.042;8.238;2022-09-17T05:56:10;2.97;;;1.20;;
20340;SDS011;10328;50.042;8.238;2022-09-17T05:58:36;3.33;;;1.70;;
20340;SDS011;10328;50.042;8.238;2022-09-17T06:01:02;5.10;;;1.37;;
20340;SDS011;10328;50.042;8.238;2022-09-17T06:03:29;3.60;;;1.17;;
20340;SDS011;10328;50.042;8.238;2022-09-17T06:05:56;5.60;;;1.20;;
20340;SDS011;10328;50.042;8.238;2022-09-17T06:08:24;3.63;;;1.40;;
20340;SDS011;10328;50.042;8.238;2022-09-17T06:10:51;2.67;;;1.17;;
20340;SDS011;10328;50.042;8.238;2022-09-17T06:13:18;4.73;;;1.33;;
20340;SDS011;10328;50.042;8.238;2022-09-17T06:15:52;3.03;;;1.03;;
20340;SDS011;10328;50.042;8.238;2022-09-17T06:18:18;4.60;;;1.33;;
20340;SDS011;10328;50.042;8.238;2022-09-17T06:20:52;1.50;;;0.90;;
20340;SDS011;10328;50.042;8.238;2022-09-17T06:23:21;5.67;;;1.20;;
20340;SDS011;10328;50.042;8.238;2022-09-17T06:25:51;2.43;;;1.30;;
20340;SDS011;10328;50.042;8.238;2022-09-17T06:28:18;4.20;;;1.20;;
20340;SDS011;10328;50.042;8.238;2022-09-17T06:30:45;11.47;;;1.80;;
20340;SDS011;10328;50.042;8.238;2022-09-17T06:33:11;4.70;;;1.20;;
20340;SDS011;10328;50.042;8.238;2022-09-17T06:35:38;6.57;;;1.50;;
20340;SDS011;10328;50.042;8.238;2022-09-17T06:38:04;5.90;;;1.77;;
20340;SDS011;10328;50.042;8.238;2022-09-17T06:40:30;4.67;;;1.30;;
20340;SDS011;10328;50.042;8.238;2022-09-17T06:42:58;4.97;;;1.60;;
20340;SDS011;10328;50.042;8.238;2022-09-17T06:45:27;3.87;;;1.43;;
20340;SDS011;10328;50.042;8.238;2022-09-17T06:47:54;5.23;;;1.43;;
20340;SDS011;10328;50.042;8.238;2022-09-17T06:50:21;4.37;;;1.97;;
20340;SDS011;10328;50.042;8.238;2022-09-17T06:52:51;3.90;;;1.57;;
20340;SDS011;10328;50.042;8.238;2022-09-17T06:55:18;17.37;;;2.70;;
20340;SDS011;10328;50.042;8.238;2022-09-17T06:57:45;8.43;;;1.60;;
20340;SDS011;10328;50.042;8.238;2022-09-17T07:00:12;14.20;;;2.03;;
20340;SDS011;10328;50.042;8.238;2022-09-17T07:02:39;7.53;;;1.80;;
20340;SDS011;10328;50.042;8.238;2022-09-17T07:05:06;17.10;;;1.60;;
20340;SDS011;10328;50.042;8.238;2022-09-17T07:07:32;9.33;;;1.70;;
20340;SDS011;10328;50.042;8.238;2022-09-17T07:10:01;5.43;;;1.47;;
20340;SDS011;10328;50.042;8.238;2022-09-17T07:12:27;5.33;;;1.40;;
20340;SDS011;10328;50.042;8.238;2022-09-17T07:14:54;8.27;;;1.60;;
20340;SDS011;10328;50.042;8.238;2022-09-17T07:17:20;7.80;;;1.50;;
20340;SDS011;10328;50.042;8.238;2022-09-17T07:19:46;4.30;;;1.43;;
20340;SDS011;10328;50.042;8.238;2022-09-17T07:22:13;5.27;;;1.70;;
20340;SDS011;10328;50.042;8.238;2022-09-17T07:24:39;5.40;;;1.70;;
20340;SDS011;10328;50.042;8.238;2022-09-17T07:27:05;4.23;;;1.57;;
20340;SDS011;10328;50.042;8.238;2022-09-17T07:29:32;10.20;;;1.80;;
20340;SDS011;10328;50.042;8.238;2022-09-17T07:31:58;6.63;;;1.60;;
20340;SDS011;10328;50.042;8.238;2022-09-17T07:34:24;3.83;;;1.60;;
20340;SDS011;10328;50.042;8.238;2022-09-17T07:36:53;3.83;;;1.40;;
20340;SDS011;10328;50.042;8.238;2022-09-17T07:39:20;8.33;;;1.57;;
20340;SDS011;10328;50.042;8.238;2022-09-17T07:41:46;4.27;;;1.80;;
20340;SDS011;10328;50.042;8.238;2022-09-17T07:44:12;6.43;;;1.30;;
20340;SDS011;10328;50.042;8.238;2022-09-17T07:46:39;3.77;;;1.40;;
20340;SDS011;10328;50.042;8.238;2022-09-17T07:49:05;3.17;;;1.40;;
20340;SDS011;10328;50.042;8.238;2022-09-17T07:51:31;5.80;;;1.60;;
20340;SDS011;10328;50.042;8.238;2022-09-17T07:53:58;4.97;;;1.50;;
20340;SDS011;10328;50.042;8.238;2022-09-17T07:56:25;4.93;;;1.40;;
20340;SDS011;10328;50.042;8.238;2022-09-17T07:58:52;6.17;;;1.53;;
20340;SDS011;10328;50.042;8.238;2022-09-17T08:01:18;5.13;;;1.57;;
20340;SDS011;10328;50.042;8.238;2022-09-17T08:03:51;4.90;;;1.63;;
20340;SDS011;10328;50.042;8.238;2022-09-17T08:06:20;4.73;;;1.33;;
20340;SDS011;10328;50.042;8.238;2022-09-17T08:08:48;4.23;;;1.53;;
20340;SDS011;10328;50.042;8.238;2022-09-17T08:11:19;8.30;;;1.77;;
20340;SDS011;10328;50.042;8.238;2022-09-17T08:14:08;6.30;;;1.50;;
20340;SDS011;10328;50.042;8.238;2022-09-17T08:16:35;5.00;;;1.57;;
20340;SDS011;10328;50.042;8.238;2022-09-17T08:19:02;4.50;;;1.30;;
20340;SDS011;10328;50.042;8.238;2022-09-17T08:21:28;6.43;;;1.40;;
20340;SDS011;10328;50.042;8.238;2022-09-17T08:23:55;4.70;;;1.43;;
20340;SDS011;10328;50.042;8.238;2022-09-17T08:26:22;4.57;;;1.40;;
20340;SDS011;10328;50.042;8.238;2022-09-17T08:28:51;3.90;;;1.20;;
20340;SDS011;10328;50.042;8.238;2022-09-17T08:31:20;4.87;;;1.50;;
20340;SDS011;10328;50.042;8.238;2022-09-17T08:33:47;5.40;;;1.70;;
20340;SDS011;10328;50.042;8.238;2022-09-17T08:36:15;7.70;;;1.63;;
20340;SDS011;10328;50.042;8.238;2022-09-17T08:38:43;5.80;;;1.40;;
20340;SDS011;10328;50.042;8.238;2022-09-17T08:46:31;6.65;;;1.65;;
20340;SDS011;10328;50.042;8.238;2022-09-17T08:49:05;5.82;;;1.45;;
20340;SDS011;10328;50.042;8.238;2022-09-17T08:51:57;6.18;;;1.60;;
20340;SDS011;10328;50.042;8.238;2022-09-17T08:54:41;5.70;;;1.83;;
20340;SDS011;10328;50.042;8.238;2022-09-17T08:59:56;5.63;;;1.23;;
20340;SDS011;10328;50.042;8.238;2022-09-17T09:02:36;5.10;;;1.38;;
20340;SDS011;10328;50.042;8.238;2022-09-17T09:05:22;2.70;;;1.20;;
20340;SDS011;10328;50.042;8.238;2022-09-17T09:07:51;6.82;;;1.30;;
20340;SDS011;10328;50.042;8.238;2022-09-17T09:10:24;5.60;;;1.40;;
20340;SDS011;10328;50.042;8.238;2022-09-17T09:12:52;2.60;;;1.20;;
20340;SDS011;10328;50.042;8.238;2022-09-17T09:18:16;4.22;;;1.00;;
20340;SDS011;10328;50.042;8.238;2022-09-17T09:20:50;4.88;;;1.05;;
20340;SDS011;10328;50.042;8.238;2022-09-17T09:23:25;4.38;;;1.13;;
20340;SDS011;10328;50.042;8.238;2022-09-17T09:25:59;2.35;;;0.90;;
20340;SDS011;10328;50.042;8.238;2022-09-17T09:28:55;4.38;;;1.20;;
20340;SDS011;10328;50.042;8.238;2022-09-17T09:31:52;7.72;;;1.20;;
20340;SDS011;10328;50.042;8.238;2022-09-17T09:34:26;4.05;;;1.20;;
20340;SDS011;10328;50.042;8.238;2022-09-17T09:36:56;6.20;;;0.85;;
20340;SDS011;10328;50.042;8.238;2022-09-17T09:39:30;3.97;;;0.80;;
20340;SDS011;10328;50.042;8.238;2022-09-17T09:42:18;3.63;;;0.90;;
20340;SDS011;10328;50.042;8.238;2022-09-17T09:44:48;5.43;;;1.03;;
20340;SDS011;10328;50.042;8.238;2022-09-17T09:57:57;2.83;;;1.20;;
20340;SDS011;10328;50.042;8.238;2022-09-17T10:00:39;2.63;;;1.00;;
20340;SDS011;10328;50.042;8.238;2022-09-17T10:03:10;4.10;;;1.10;;
20340;SDS011;10328;50.042;8.238;2022-09-17T10:05:50;2.07;;;1.00;;
20340;SDS011;10328;50.042;8.238;2022-09-17T10:08:18;3.53;;;1.27;;
20340;SDS011;10328;50.042;8.238;2022-09-17T10:13:21;2.23;;;0.77;;
20340;SDS011;10328;50.042;8.238;2022-09-17T10:15:47;2.17;;;0.80;;
20340;SDS011;10328;50.042;8.238;2022-09-17T10:18:15;2.97;;;1.00;;
20340;SDS011;10328;50.042;8.238;2022-09-17T10:20:49;3.00;;;0.83;;
20340;SDS011;10328;50.042;8.238;2022-09-17T10:23:17;2.03;;;0.87;;
20340;SDS011;10328;50.042;8.238;2022-09-17T10:25:44;2.67;;;0.80;;
20340;SDS011;10328;50.042;8.238;2022-09-17T10:28:30;2.67;;;0.90;;
20340;SDS011;10328;50.042;8.238;2022-09-17T10:30:59;3.77;;;0.83;;
20340;SDS011;10328;50.042;8.238;2022-09-17T10:33:33;2.53;;;0.90;;
20340;SDS011;10328;50.042;8.238;2022-09-17T10:38:36;3.90;;;0.90;;
20340;SDS011;10328;50.042;8.238;2022-09-17T10:41:19;3.47;;;0.80;;
20340;SDS011;10328;50.042;8.238;2022-09-17T10:43:47;2.83;;;1.77;;
20340;SDS011;10328;50.042;8.238;2022-09-17T10:46:18;3.00;;;1.00;;
20340;SDS011;10328;50.042;8.238;2022-09-17T10:48:55;4.10;;;1.27;;
20340;SDS011;10328;50.042;8.238;2022-09-17T10:51:45;5.88;;;2.45;;
20340;SDS011;10328;50.042;8.238;2022-09-17T10:56:39;3.17;;;0.93;;
20340;SDS011;10328;50.042;8.238;2022-09-17T10:59:19;2.40;;;0.98;;
20340;SDS011;10328;50.042;8.238;2022-09-17T11:02:23;4.18;;;1.00;;
20340;SDS011;10328;50.042;8.238;2022-09-17T11:05:15;2.70;;;1.00;;
20340;SDS011;10328;50.042;8.238;2022-09-17T11:07:48;4.10;;;1.00;;
20340;SDS011;10328;50.042;8.238;2022-09-17T11:10:24;2.38;;;1.00;;
20340;SDS011;10328;50.042;8.238;2022-09-17T11:15:50;3.42;;;1.13;;
20340;SDS011;10328;50.042;8.238;2022-09-17T11:18:43;3.08;;;0.80;;
20340;SDS011;10328;50.042;8.238;2022-09-17T11:21:19;3.75;;;1.05;;
20340;SDS011;10328;50.042;8.238;2022-09-17T11:32:06;3.95;;;0.80;;
20340;SDS011;10328;50.042;8.238;2022-09-17T11:37:29;2.47;;;0.98;;
20340;SDS011;10328;50.042;8.238;2022-09-17T11:42:29;2.20;;;0.70;;
20340;SDS011;10328;50.042;8.238;2022-09-17T11:45:00;2.58;;;0.90;;
20340;SDS011;10328;50.042;8.238;2022-09-17T11:50:20;3.60;;;0.82;;
20340;SDS011;10328;50.042;8.238;2022-09-17T11:52:55;7.53;;;0.95;;
20340;SDS011;10328;50.042;8.238;2022-09-17T11:55:39;3.47;;;1.02;;
20340;SDS011;10328;50.042;8.238;2022-09-17T12:01:01;3.83;;;0.90;;
20340;SDS011;10328;50.042;8.238;2022-09-17T12:03:33;2.97;;;0.85;;
20340;SDS011;10328;50.042;8.238;2022-09-17T12:06:04;3.45;;;1.35;;
20340;SDS011;10328;50.042;8.238;2022-09-17T12:13:53;1.90;;;1.00;;
20340;SDS011;10328;50.042;8.238;2022-09-17T12:16:26;2.65;;;1.00;;
20340;SDS011;10328;50.042;8.238;2022-09-17T12:19:01;1.73;;;0.80;;
20340;SDS011;10328;50.042;8.238;2022-09-17T12:21:34;3.30;;;0.95;;
20340;SDS011;10328;50.042;8.238;2022-09-17T12:24:25;3.67;;;1.10;;
20340;SDS011;10328;50.042;8.238;2022-09-17T12:27:13;1.88;;;0.90;;
20340;SDS011;10328;50.042;8.238;2022-09-17T12:30:12;1.88;;;0.82;;
20340;SDS011;10328;50.042;8.238;2022-09-17T12:38:43;2.38;;;0.80;;
20340;SDS011;10328;50.042;8.238;2022-09-17T12:44:45;1.17;;;0.70;;
20340;SDS011;10328;50.042;8.238;2022-09-17T12:50:27;3.22;;;0.70;;
20340;SDS011;10328;50.042;8.238;2022-09-17T12:53:44;1.80;;;0.75;;
20340;SDS011;10328;50.042;8.238;2022-09-17T12:56:02;1.58;;;0.85;;
20340;SDS011;10328;50.042;8.238;2022-09-17T13:03:39;2.15;;;0.70;;
20340;SDS011;10328;50.042;8.238;2022-09-17T13:09:08;1.70;;;0.80;;
20340;SDS011;10328;50.042;8.238;2022-09-17T13:17:38;1.80;;;0.70;;
20340;SDS011;10328;50.042;8.238;2022-09-17T13:20:42;2.05;;;0.52;;
20340;SDS011;10328;50.042;8.238;2022-09-17T13:23:33;3.43;;;0.93;;
20340;SDS011;10328;50.042;8.238;2022-09-17T13:26:01;2.30;;;0.77;;
20340;SDS011;10328;50.042;8.238;2022-09-17T13:28:47;2.50;;;0.80;;
20340;SDS011;10328;50.042;8.238;2022-09-17T13:31:21;2.37;;;0.60;;
20340;SDS011;10328;50.042;8.238;2022-09-17T13:36:45;1.70;;;0.60;;
20340;SDS011;10328;50.042;8.238;2022-09-17T13:39:33;2.20;;;0.90;;
20340;SDS011;10328;50.042;8.238;2022-09-17T13:42:07;1.73;;;0.60;;
20340;SDS011;10328;50.042;8.238;2022-09-17T13:45:04;0.80;;;0.50;;
20340;SDS011;10328;50.042;8.238;2022-09-17T13:47:47;1.77;;;0.60;;
20340;SDS011;10328;50.042;8.238;2022-09-17T13:50:27;2.13;;;0.70;;
20340;SDS011;10328;50.042;8.238;2022-09-17T13:52:56;1.27;;;0.43;;
20340;SDS011;10328;50.042;8.238;2022-09-17T13:58:02;4.27;;;0.60;;
20340;SDS011;10328;50.042;8.238;2022-09-17T14:13:54;2.20;;;0.90;;
20340;SDS011;10328;50.042;8.238;2022-09-17T14:24:22;1.33;;;0.70;;
20340;SDS011;10328;50.042;8.238;2022-09-17T14:26:56;1.20;;;0.57;;
20340;SDS011;10328;50.042;8.238;2022-09-17T14:32:39;1.93;;;0.50;;
20340;SDS011;10328;50.042;8.238;2022-09-17T14:35:16;0.53;;;0.43;;
20340;SDS011;10328;50.042;8.238;2022-09-17T14:40:59;2.90;;;1.27;;
20340;SDS011;10328;50.042;8.238;2022-09-17T14:46:24;0.93;;;0.57;;
20340;SDS011;10328;50.042;8.238;2022-09-17T14:49:17;2.67;;;0.77;;
20340;SDS011;10328;50.042;8.238;2022-09-17T14:51:46;3.00;;;0.60;;
20340;SDS011;10328;50.042;8.238;2022-09-17T14:56:47;2.03;;;0.63;;
20340;SDS011;10328;50.042;8.238;2022-09-17T14:59:49;2.70;;;0.80;;
20340;SDS011;10328;50.042;8.238;2022-09-17T15:04:55;3.77;;;1.03;;
20340;SDS011;10328;50.042;8.238;2022-09-17T15:07:23;1.10;;;0.60;;
20340;SDS011;10328;50.042;8.238;2022-09-17T15:09:49;1.73;;;0.60;;
20340;SDS011;10328;50.042;8.238;2022-09-17T15:12:21;2.33;;;0.70;;
20340;SDS011;10328;50.042;8.238;2022-09-17T15:14:52;0.90;;;0.60;;
20340;SDS011;10328;50.042;8.238;2022-09-17T15:17:19;2.97;;;0.50;;
20340;SDS011;10328;50.042;8.238;2022-09-17T15:19:49;1.17;;;0.40;;
20340;SDS011;10328;50.042;8.238;2022-09-17T15:22:19;2.23;;;0.80;;
20340;SDS011;10328;50.042;8.238;2022-09-17T15:24:59;1.30;;;0.70;;
20340;SDS011;10328;50.042;8.238;2022-09-17T15:27:28;2.07;;;0.80;;
20340;SDS011;10328;50.042;8.238;2022-09-17T15:32:28;2.60;;;0.80;;
20340;SDS011;10328;50.042;8.238;2022-09-17T15:37:45;1.33;;;0.63;;
20340;SDS011;10328;50.042;8.238;2022-09-17T15:40:38;2.53;;;0.70;;
20340;SDS011;10328;50.042;8.238;2022-09-17T15:43:13;1.60;;;0.70;;
20340;SDS011;10328;50.042;8.238;2022-09-17T15:45:41;2.27;;;0.87;;
20340;SDS011;10328;50.042;8.238;2022-09-17T15:48:17;2.27;;;0.50;;
20340;SDS011;10328;50.042;8.238;2022-09-17T15:50:54;1.33;;;0.40;;
20340;SDS011;10328;50.042;8.238;2022-09-17T15:53:22;0.73;;;0.50;;
20340;SDS011;10328;50.042;8.238;2022-09-17T16:08:44;1.00;;;0.60;;
20340;SDS011;10328;50.042;8.238;2022-09-17T16:11:14;0.40;;;0.40;;
20340;SDS011;10328;50.042;8.238;2022-09-17T16:13:41;1.80;;;0.67;;
20340;SDS011;10328;50.042;8.238;2022-09-17T16:16:09;2.23;;;0.73;;
20340;SDS011;10328;50.042;8.238;2022-09-17T16:18:39;0.87;;;0.40;;
20340;SDS011;10328;50.042;8.238;2022-09-17T16:21:07;0.50;;;0.50;;
20340;SDS011;10328;50.042;8.238;2022-09-17T16:23:35;0.60;;;0.40;;
20340;SDS011;10328;50.042;8.238;2022-09-17T16:26:03;2.20;;;0.70;;
20340;SDS011;10328;50.042;8.238;2022-09-17T16:28:29;1.87;;;0.60;;
20340;SDS011;10328;50.042;8.238;2022-09-17T16:30:56;1.07;;;0.50;;
20340;SDS011;10328;50.042;8.238;2022-09-17T16:33:22;1.53;;;0.50;;
20340;SDS011;10328;50.042;8.238;2022-09-17T16:35:51;2.03;;;0.50;;
20340;SDS011;10328;50.042;8.238;2022-09-17T16:38:17;1.43;;;0.70;;
20340;SDS011;10328;50.042;8.238;2022-09-17T16:40:44;1.50;;;0.50;;
20340;SDS011;10328;50.042;8.238;2022-09-17T16:43:12;1.07;;;0.60;;
20340;SDS011;10328;50.042;8.238;2022-09-17T16:45:38;2.63;;;0.50;;
20340;SDS011;10328;50.042;8.238;2022-09-17T16:48:04;1.97;;;0.60;;
20340;SDS011;10328;50.042;8.238;2022-09-17T16:50:32;0.70;;;0.60;;
20340;SDS011;10328;50.042;8.238;2022-09-17T16:52:58;1.07;;;0.80;;
20340;SDS011;10328;50.042;8.238;2022-09-17T16:55:30;2.20;;;0.43;;
20340;SDS011;10328;50.042;8.238;2022-09-17T16:57:56;1.53;;;0.63;;
20340;SDS011;10328;50.042;8.238;2022-09-17T17:00:23;1.00;;;0.70;;
20340;SDS011;10328;50.042;8.238;2022-09-17T17:02:51;0.90;;;0.70;;
20340;SDS011;10328;50.042;8.238;2022-09-17T17:05:19;1.77;;;1.00;;
20340;SDS011;10328;50.042;8.238;2022-09-17T17:07:46;1.70;;;1.17;;
20340;SDS011;10328;50.042;8.238;2022-09-17T17:10:12;1.70;;;1.17;;
20340;SDS011;10328;50.042;8.238;2022-09-17T17:12:39;2.83;;;1.00;;
20340;SDS011;10328;50.042;8.238;2022-09-17T17:15:06;4.23;;;1.50;;
20340;SDS011;10328;50.042;8.238;2022-09-17T17:17:34;1.53;;;0.97;;
20340;SDS011;10328;50.042;8.238;2022-09-17T17:20:02;2.17;;;1.13;;
20340;SDS011;10328;50.042;8.238;2022-09-17T17:22:32;0.83;;;0.70;;
20340;SDS011;10328;50.042;8.238;2022-09-17T17:24:59;3.53;;;0.73;;
20340;SDS011;10328;50.042;8.238;2022-09-17T17:27:25;0.63;;;0.50;;
20340;SDS011;10328;50.042;8.238;2022-09-17T17:29:51;1.50;;;0.70;;
20340;SDS011;10328;50.042;8.238;2022-09-17T17:32:18;1.30;;;0.60;;
20340;SDS011;10328;50.042;8.238;2022-09-17T17:34:44;0.77;;;0.60;;
20340;SDS011;10328;50.042;8.238;2022-09-17T17:37:10;1.43;;;0.70;;
20340;SDS011;10328;50.042;8.238;2022-09-17T17:39:39;1.80;;;0.80;;
20340;SDS011;10328;50.042;8.238;2022-09-17T17:42:05;1.63;;;1.00;;
20340;SDS011;10328;50.042;8.238;2022-09-17T17:44:32;1.10;;;0.60;;
20340;SDS011;10328;50.042;8.238;2022-09-17T17:46:58;2.33;;;1.30;;
20340;SDS011;10328;50.042;8.238;2022-09-17T17:49:25;2.07;;;1.40;;
20340;SDS011;10328;50.042;8.238;2022-09-17T17:51:51;2.00;;;1.43;;
20340;SDS011;10328;50.042;8.238;2022-09-17T17:54:19;2.33;;;1.20;;
20340;SDS011;10328;50.042;8.238;2022-09-17T17:56:46;4.27;;;1.10;;
20340;SDS011;10328;50.042;8.238;2022-09-17T17:59:13;1.63;;;0.90;;
20340;SDS011;10328;50.042;8.238;2022-09-17T18:01:39;1.23;;;0.80;;
20340;SDS011;10328;50.042;8.238;2022-09-17T18:04:06;1.40;;;0.87;;
20340;SDS011;10328;50.042;8.238;2022-09-17T18:06:33;2.07;;;0.67;;